Amunt
Inicio > meteoXarxa
Fes-te'n soci

METEOXARXA

Benicarló
Ubicació la Cervellona
Comarca el Baix Maestrat
Altitud (msnm)
Posició geogràfica 40° 24' 6.12" N, 00° 24' 51.84" E
Model
Presa de dades
Font de les dades IVIA
Estadístiques. Resum
Data Temperatura (ºC) Humitat (%) Pressió (hPa) Vent (km/h) Precipit. (mm)
Mínima Mitjana Màxima Mínima Mitjana Màxima Mínima Mitjana Màxima Predom. Mitjana Ràfega màxima Total Dies de pluja
Mínima Mitjana Màxima Mínima Mitjana Màxima
Últimes dades diàries
23-03-2017 5,9     11,1     16,6 61,0 N 3,2 16,8 0,0  
22-03-2017 6,7     13,0     18,5 74,8 SE 2,1 13,6 0,0  
21-03-2017 7,1     13,4     18,0 72,8 SE 1,8 12,8 0,0  
20-03-2017 7,4     12,9     19,5 80,7 SE 2,1 13,6 0,0  
19-03-2017 6,0     11,8     18,7 80,5 SE 1,5 11,0 0,0  
18-03-2017 3,0     11,6     19,8 67,1 SE 2,0 12,7 0,2  
17-03-2017 3,9     11,2     18,7 70,1 S 3,1 17,9 0,0  
16-03-2017 6,0     11,9     18,3 68,9 S 2,5 14,2 0,0  
15-03-2017 6,7     12,5     19,7 72,7 E 1,9 14,2 0,0  
14-03-2017 9,7     14,0     21,4 71,4 N 3,9 17,5 0,0  
13-03-2017 7,7     11,8     15,7 79,1 N 5,9 24,0 7,7  
12-03-2017 8,5     14,1     20,0 75,1 W 5,5 25,5 1,2  
11-03-2017 6,3     12,5     19,0 86,3 SE 1,1 10,0 0,2  
10-03-2017 8,1     13,6     21,2 79,7 E 1,5 10,7 0,0  
09-03-2017 7,6     15,6     24,1 63,4 SE 1,4 11,9 0,0  
08-03-2017 10,8     16,4     19,9 61,3 W 6,0 29,2 0,0  
07-03-2017 12,2     18,4     23,6 35,9 NW 7,7 31,0 0,0  
06-03-2017 10,6     17,6     24,9 49,9 NW 4,8 27,2 0,0  
05-03-2017 5,4     12,8     18,8 59,0 S 2,5 16,2 0,0  
04-03-2017 6,8     11,3     17,4 54,0 W 5,4 25,9 0,0  
03-03-2017 5,6     11,2     16,1 87,0 SE 3,7 24,7 9,7  
02-03-2017 5,0     11,0     17,7 82,4 SE 1,2 9,2 0,2  
01-03-2017 6,9     11,9     17,1 72,0 S 3,5 19,0 0,0  
28-02-2017 8,3     12,6     16,6 60,4 W 3,9 27,9 0,0  
27-02-2017 7,0     11,2     17,2 83,0 S 1,9 16,6 0,2  
26-02-2017 5,4     10,8     16,1 86,1 SE 2,0 15,4 0,2  
25-02-2017 2,2     8,9     15,3 74,0 SE 1,9 13,2 0,0  
24-02-2017 5,4     11,1     15,2 87,2 NE 1,2 13,3 6,5  
23-02-2017 6,9     11,7     19,1 78,2 SE 0,8 11,0 0,8  
22-02-2017 5,7     10,7     19,0 71,2 S 1,8 13,2 0,0  
21-02-2017 3,4     10,1     18,4 73,0 SW 2,3 12,7 0,0  
20-02-2017 4,7     10,4     18,3 70,7 SW 2,4 15,9 0,2  
Dades del mes en curs (actualitzades fins l'últim dia disponible)
03/2017 3,0 7,1 12,2 13,1 15,7 19,3 24,9 69,8   3,2 31,0 19,2  
Últimes dades mensuals
02/2017 2,2 6,7 11,3 16,7 22,1 24,5 77,0 100,0 SE 3,8 42,0 19,0
01/2017 -0,8 3,5 8,4 14,1 25,5 18,2 68,7 100,0 N 5,3 38,7 124,2
12/2016 0,5 6,3 14,1 10,2 10,8 16,0 19,4 53,4 81,0 93,5 4,3 30,4 85,6 15
11/2016 3,8 8,7 13,7 13,5 13,3 19,0 26,4 42,5 72,7 91,8 3,3 31,9 87,5 11
10/2016 9,8 14,4 17,4 18,6 18,3 24,0 28,1 61,9 79,6 92,5 2,2 20,4 55,9 17
09/2016 12,4 17,5 22,7 28,7 33,8 25,6 68,7 97,3 SE 3,5 86,5 24,6
08/2016 14,9 19,5 24,9 30,3 32,8 27,7 68,2 95,2 SE 3,6 26,8 4,0
07/2016 14,9 19,0 25,1 30,3 33,9 22,4 63,9 97,1 SE 3,8 26,2 0,8
06/2016 11,1 15,8 19,7 21,8 24,2 27,5 32,6 39,5 66,0 83,3 4,3 27,0 5,4 6
05/2016 7,3 11,6 17,1 22,2 27,5 18,4 70,7 98,5 S 4,4 34,2 36,8
04/2016 6,3 9,4 14,6 19,6 24,2 24,1 69,1 98,0 NO 5,3 33,0 56,6
03/2016 0,4 6,9 12,2 17,6 24,0 20,9 62,5 98,6 NO 5,6 39,5 88,3
02/2016 0,3 5,8 11,5 17,7 25,9 22,9 61,5 96,7 NO 5,1 41,6 15,4
Dades de l'any en curs (actualitzades fins l'últim dia disponible)
2017 -0,8 5,7 12,2 10,8 9,3 16,5 24,9 72,0   4,1 42,0 162,4  
Últimes dades anuals
2006 425,2
2007 599,0
2008 520,0
2009 -2,0 15,2 23,6 20,0 6,0 24,9 42,3 38,0 67,7 92,0 4,7 47,0 391,2 41
2010 -1,0 11,5 23,6 16,3 5,2 21,1 35,2 32,0 66,9 95,0 4,9 56,0 512,0 97
2011 612,9
2012 433,1
2014 -1,6 12,8 17,6 22,6 33,6 15,1 68,2 97,4 O 4,8 51,5 441,5
2015 -2,0 12,0 17,0 22,5 33,9 13,1 70,1 98,3 O 4,7 47,6 563,8